Bei Facebook empfehlenBei Twitter postenGoogle plusPinterest

Das Wetter im Erzgebirge am 10.10.2015

Wetter und Klima am 10.10.2015 Holzhau im Erzgebirge (630m ü.NN)
Letzte gemessene Temperatur und Uhrzeit der Messung23:45:00 Uhr1.30 °C
Temperatur (Maximum / Höchstwert) und Uhrzeit der Messung13:15:00 Uhr10.10 °C
Temperatur (Minimum / Tiefstwert) und Uhrzeit der Messung22:30:000.50 °C
Errechneter Absolutwert der Temperaturschwankungen zwischen Tmin und Tmax des Tages9.60 K
Errechnete Tagesmitteltemperatur5.95104 °C
Gesamt - Niederschlag des Tages (in flüssiger Form)0.00 Liter / m²
Luftdruck (Maximum / Höchstwert) und Zeitpunkt der Messung00:00:00 Uhr1017.40 hPa
Luftdruck (Minimum / Tiefstwert) und Zeitpunkt der Messung23:15:00 Uhr1015.10 hPa
Errechneter Absolutwert der Luftdruckschwankungen des Tages2.30 hPa
Höchste gemessene Windgeschwindigkeit und Uhrzeit der Messung17:15:00 Uhr7.20 km/h
Errechnete Windhäufigkeit in Relation zu den Messwerten des Tages8.33333 %
Niedrigste Windkühle (Windchill) und Zeitpunkt der Messung22:30:00 Uhr0.50 °C
Taupunkt (Maximum / Höchstwert) und Uhrzeit der Messung13:15:00 Uhr8.90 °C
Taupunkt (Minimum / Tiefstwert) und Uhrzeit der Messung22:30:00-1.10 °C
Anzahl der automatisch eingelesenen Messwerte 96

Detaillierte Wetter- und Klima- Messwerte für den 10.10.2015 in Holzhau im Erzgebirge (630m ü.NN)
ZeitTemperaturLuftdruckRel. LuftfeuchteWindWindrichtungWindchillTaupunktNiederschlag l/m²
23:45:001.30 °C1015.20 hPa91.00 %0.00 °C 
23:30:000.90 °C1015.20 hPa90.00 %-0.50 °C 
23:15:000.90 °C1015.10 hPa90.00 %-0.50 °C 
23:00:001.00 °C1015.10 hPa90.00 %-0.50 °C 
22:45:000.80 °C1015.60 hPa90.00 %-0.60 °C 
22:30:000.50 °C1015.80 hPa89.00 %-1.10 °C 
22:15:000.50 °C1015.80 hPa89.00 %-1.10 °C 
22:00:001.00 °C1015.80 hPa88.00 %-0.80 °C 
21:45:001.60 °C1015.70 hPa88.00 %-0.20 °C 
21:30:002.10 °C1015.80 hPa89.00 %2.88 km/hSSO2.10 °C0.50 °C 
21:15:002.60 °C1015.70 hPa89.00 %1.00 °C 
21:00:002.60 °C1015.70 hPa90.00 %1.10 °C 
20:45:002.50 °C1015.60 hPa90.00 %1.00 °C 
20:30:001.80 °C1015.50 hPa90.00 %0.30 °C 
20:15:001.30 °C1015.70 hPa90.00 %-0.20 °C 
20:00:001.60 °C1015.80 hPa90.00 %0.10 °C 
19:45:001.90 °C1015.60 hPa89.00 %0.30 °C 
19:30:002.20 °C1015.70 hPa89.00 %0.60 °C 
19:15:002.60 °C1015.40 hPa89.00 %1.00 °C 
19:00:003.30 °C1015.50 hPa89.00 %1.70 °C 
18:45:003.90 °C1015.30 hPa89.00 %2.30 °C 
18:30:004.50 °C1015.30 hPa89.00 %2.80 °C 
18:15:005.10 °C1015.60 hPa89.00 %3.40 °C 
18:00:005.50 °C1015.40 hPa89.00 %3.80 °C 
17:45:005.90 °C1015.60 hPa89.00 %2.16 km/hOSO5.90 °C4.20 °C 
17:30:006.10 °C1015.30 hPa89.00 %4.40 °C 
17:15:006.50 °C1015.30 hPa89.00 %7.20 km/hOSO5.10 °C4.80 °C 
17:00:006.70 °C1015.60 hPa89.00 %5.00 °C 
16:45:006.70 °C1015.60 hPa89.00 %5.00 °C 
16:30:006.80 °C1015.70 hPa89.00 %4.32 km/hSO6.80 °C5.10 °C 
16:15:006.90 °C1015.80 hPa89.00 %3.96 km/hOSO6.90 °C5.20 °C 
16:00:007.10 °C1015.90 hPa89.00 %3.96 km/hSO7.10 °C5.40 °C 
15:45:007.30 °C1015.80 hPa89.00 %5.60 °C 
15:30:007.60 °C1015.70 hPa89.00 %5.40 km/hOSO6.90 °C5.90 °C 
15:15:007.90 °C1015.90 hPa89.00 %6.20 °C 
15:00:008.20 °C1015.70 hPa89.00 %5.76 km/hOSO7.50 °C6.50 °C 
14:45:008.40 °C1015.80 hPa89.00 %6.70 °C 
14:30:008.90 °C1015.70 hPa89.00 %7.20 °C 
14:15:009.60 °C1015.70 hPa90.00 %8.00 °C 
14:00:009.60 °C1015.70 hPa90.00 %8.00 °C 
13:45:009.80 °C1015.70 hPa91.00 %8.40 °C 
13:30:009.70 °C1015.70 hPa91.00 %8.30 °C 
13:15:0010.10 °C1015.70 hPa92.00 %8.90 °C 
13:00:009.80 °C1015.60 hPa93.00 %8.70 °C 
12:45:009.40 °C1015.90 hPa93.00 %8.30 °C 
12:30:009.30 °C1016.00 hPa94.00 %8.40 °C 
12:15:009.00 °C1015.90 hPa94.00 %8.10 °C 
12:00:008.80 °C1015.80 hPa94.00 %7.90 °C 
11:45:008.40 °C1016.00 hPa95.00 %7.60 °C 
11:30:008.30 °C1015.90 hPa95.00 %7.50 °C 
11:15:007.90 °C1016.00 hPa95.00 %7.10 °C 
11:00:007.80 °C1016.00 hPa95.00 %7.10 °C 
10:45:007.70 °C1016.00 hPa95.00 %7.00 °C 
10:30:007.60 °C1016.00 hPa95.00 %6.90 °C 
10:15:007.50 °C1016.10 hPa95.00 %6.80 °C 
10:00:007.30 °C1016.00 hPa96.00 %6.70 °C 
09:45:007.10 °C1015.90 hPa96.00 %6.50 °C 
09:30:007.00 °C1015.90 hPa96.00 %6.40 °C 
09:15:006.90 °C1016.00 hPa96.00 %6.30 °C 
09:00:006.70 °C1016.00 hPa96.00 %6.10 °C 
08:45:006.40 °C1015.80 hPa95.00 %5.70 °C 
08:30:006.30 °C1016.00 hPa95.00 %5.60 °C 
08:15:006.10 °C1015.90 hPa95.00 %5.40 °C 
08:00:005.90 °C1016.10 hPa95.00 %5.20 °C 
07:45:005.90 °C1015.80 hPa95.00 %5.20 °C 
07:30:005.80 °C1016.00 hPa95.00 %5.10 °C 
07:15:005.80 °C1016.00 hPa95.00 %5.10 °C 
07:00:005.80 °C1016.10 hPa95.00 %5.10 °C 
06:45:005.90 °C1016.00 hPa95.00 %5.20 °C 
06:30:005.90 °C1016.10 hPa95.00 %5.20 °C 
06:15:005.90 °C1016.20 hPa95.00 %5.20 °C 
06:00:005.90 °C1016.00 hPa95.00 %5.20 °C 
05:45:006.00 °C1016.10 hPa95.00 %5.30 °C 
05:30:006.10 °C1016.30 hPa95.00 %5.40 °C 
05:15:006.10 °C1016.20 hPa95.00 %5.40 °C 
05:00:006.10 °C1016.20 hPa95.00 %5.40 °C 
04:45:006.10 °C1016.30 hPa95.00 %5.40 °C 
04:30:006.20 °C1016.60 hPa95.00 %5.50 °C 
04:15:006.30 °C1016.80 hPa95.00 %5.60 °C 
04:00:006.30 °C1016.80 hPa95.00 %5.60 °C 
03:45:006.30 °C1016.70 hPa95.00 %5.60 °C 
03:30:006.40 °C1016.60 hPa95.00 %5.70 °C 
03:15:006.40 °C1016.90 hPa95.00 %5.70 °C 
03:00:006.60 °C1016.90 hPa95.00 %5.90 °C 
02:45:006.80 °C1016.90 hPa95.00 %6.10 °C 
02:30:006.90 °C1016.90 hPa95.00 %6.20 °C 
02:15:007.10 °C1017.00 hPa95.00 %6.40 °C 
02:00:007.20 °C1017.00 hPa95.00 %6.50 °C 
01:45:007.30 °C1017.10 hPa95.00 %6.60 °C 
01:30:007.40 °C1017.10 hPa95.00 %6.70 °C 
01:15:007.40 °C1017.20 hPa95.00 %6.70 °C 
01:00:007.40 °C1017.00 hPa95.00 %6.70 °C 
00:45:007.30 °C1017.10 hPa95.00 %6.60 °C 
00:30:007.30 °C1017.10 hPa95.00 %6.60 °C 
00:15:007.20 °C1017.10 hPa95.00 %6.50 °C 
00:00:007.20 °C1017.40 hPa95.00 %6.50 °C 

Permanenter Link zu dieser Seite: Wetter im Erzgebirge am 10.10.2015
Performance-Info: Die Erstellung der Seite / Statistik(en) / Tabelle(n) erforderte 5 Datenbankserver-Abfrage(n) und dauerte 95 Millisekunden. (Dieser Messwert ist von der Gesamt-Auslastung des Servers abhängig.)
Erzgebirge - Wetter | Erzgebirge - Wetter (Mobilgeräte) | Komplette Klimadatenbank